createdAt,value
2019-05-11T00:00:50.449Z,10.30
2019-05-11T00:01:47.390Z,10.28
2019-05-11T00:02:44.459Z,10.28
2019-05-11T00:03:41.448Z,10.30
2019-05-11T00:04:38.485Z,10.30
2019-05-11T00:05:35.441Z,10.31
2019-05-11T00:06:32.512Z,10.27
2019-05-11T00:07:29.521Z,10.27
2019-05-11T00:08:26.537Z,10.23
2019-05-11T00:09:23.492Z,10.19
2019-05-11T00:10:23.565Z,10.18
2019-05-11T00:11:17.569Z,10.13
2019-05-11T00:12:14.581Z,10.10
2019-05-11T00:13:11.521Z,10.09
2019-05-11T00:14:08.552Z,10.05
2019-05-11T00:15:05.593Z,10.03
2019-05-11T00:16:02.556Z,10.02
2019-05-11T00:16:59.561Z,10.01
2019-05-11T00:17:56.621Z,10.00
2019-05-11T00:18:53.636Z,9.98
2019-05-11T00:19:50.685Z,10.00
2019-05-11T00:20:47.726Z,9.97
2019-05-11T00:21:44.690Z,9.97
2019-05-11T00:22:41.606Z,9.97
2019-05-11T00:23:38.619Z,9.97
2019-05-11T00:24:35.659Z,9.96
2019-05-11T00:25:32.631Z,9.94
2019-05-11T00:26:29.637Z,9.94
2019-05-11T00:27:26.690Z,9.93
2019-05-11T00:28:23.706Z,9.93
2019-05-11T00:29:20.788Z,9.93
2019-05-11T00:30:17.679Z,9.90
2019-05-11T00:31:14.730Z,9.90
2019-05-11T00:32:11.793Z,9.89
2019-05-11T00:33:08.893Z,9.89
2019-05-11T00:34:05.725Z,9.89
2019-05-11T00:35:02.811Z,9.88
2019-05-11T00:35:59.801Z,9.86
2019-05-11T00:36:56.764Z,9.85
2019-05-11T00:37:54.113Z,9.84
2019-05-11T00:38:50.821Z,9.84
2019-05-11T00:39:47.847Z,9.84
2019-05-11T00:40:44.789Z,9.82
2019-05-11T00:41:41.831Z,9.81
2019-05-11T00:42:38.885Z,9.82
2019-05-11T00:43:35.899Z,9.84
2019-05-11T00:44:32.830Z,9.85
2019-05-11T00:45:29.871Z,9.85
2019-05-11T00:46:26.941Z,9.81
2019-05-11T00:47:23.969Z,9.82
2019-05-11T00:48:20.930Z,9.81
2019-05-11T00:49:17.915Z,9.81
2019-05-11T00:50:14.952Z,9.79
2019-05-11T00:51:11.903Z,9.80
2019-05-11T00:52:08.937Z,9.79
2019-05-11T00:53:06.053Z,9.77
2019-05-11T00:54:02.999Z,9.77
2019-05-11T00:54:59.945Z,9.77
2019-05-11T00:55:56.973Z,9.77
2019-05-11T00:56:54.023Z,9.77
2019-05-11T00:57:50.971Z,9.77
2019-05-11T00:58:50.779Z,9.77
2019-05-11T00:59:45.021Z,9.77
2019-05-11T01:00:42.107Z,9.77
2019-05-11T01:01:39.002Z,9.77
2019-05-11T01:02:36.076Z,9.76
2019-05-11T01:03:33.082Z,9.73
2019-05-11T01:04:30.111Z,9.76
2019-05-11T01:05:27.106Z,9.76
2019-05-11T01:06:24.157Z,9.73
2019-05-11T01:07:21.137Z,9.73
2019-05-11T01:08:18.254Z,9.73
2019-05-11T01:09:15.096Z,9.72
2019-05-11T01:10:23.879Z,9.72
2019-05-11T01:11:09.174Z,9.73
2019-05-11T01:12:06.106Z,9.73
2019-05-11T01:13:03.171Z,9.73
2019-05-11T01:14:00.262Z,9.75
2019-05-11T01:14:57.237Z,9.72
2019-05-11T01:15:54.255Z,9.72
2019-05-11T01:16:51.183Z,9.72
2019-05-11T01:17:48.276Z,9.69
2019-05-11T01:18:45.280Z,9.69
2019-05-11T01:19:42.181Z,9.68
2019-05-11T01:20:39.236Z,9.68
2019-05-11T01:21:36.370Z,9.67
2019-05-11T01:22:33.345Z,9.65
2019-05-11T01:23:30.269Z,9.67
2019-05-11T01:24:27.285Z,9.67
2019-05-11T01:25:24.315Z,9.67
2019-05-11T01:26:21.261Z,9.67
2019-05-11T01:27:18.418Z,9.67
2019-05-11T01:28:15.390Z,9.68
2019-05-11T01:29:12.395Z,9.68
2019-05-11T01:30:09.300Z,9.69
2019-05-11T01:31:06.317Z,9.68
2019-05-11T01:32:03.474Z,9.68
2019-05-11T01:33:00.452Z,9.68
2019-05-11T01:33:57.376Z,9.68
2019-05-11T01:34:54.424Z,9.69
2019-05-11T01:35:51.421Z,9.69
2019-05-11T01:36:48.457Z,9.71
2019-05-11T01:37:45.408Z,9.69
2019-05-11T01:38:42.473Z,9.68
2019-05-11T01:39:39.568Z,9.68
2019-05-11T01:40:36.413Z,9.67
2019-05-11T01:41:33.451Z,9.65
2019-05-11T01:42:30.558Z,9.65
2019-05-11T01:43:28.445Z,9.64
2019-05-11T01:44:24.542Z,9.63
2019-05-11T01:45:21.544Z,9.63
2019-05-11T01:46:18.579Z,9.63
2019-05-11T01:47:15.475Z,9.63
2019-05-11T01:48:12.510Z,9.61
2019-05-11T01:49:09.627Z,9.63
2019-05-11T01:50:06.574Z,9.63
2019-05-11T01:51:03.510Z,9.61
2019-05-11T01:52:00.587Z,9.60
2019-05-11T01:52:57.803Z,9.60
2019-05-11T01:53:54.623Z,9.60
2019-05-11T01:54:51.671Z,9.60
2019-05-11T01:55:48.609Z,9.60
2019-05-11T01:56:45.633Z,9.60
2019-05-11T01:57:42.711Z,9.57
2019-05-11T01:58:39.636Z,9.57
2019-05-11T01:59:36.661Z,9.56
2019-05-11T02:00:33.717Z,9.57
2019-05-11T02:01:30.716Z,9.57
2019-05-11T02:02:27.654Z,9.56
2019-05-11T02:03:24.719Z,9.56
2019-05-11T02:04:21.815Z,9.53
2019-05-11T02:05:18.660Z,9.52
2019-05-11T02:06:15.697Z,9.52
2019-05-11T02:07:12.778Z,9.52
2019-05-11T02:08:09.862Z,9.52
2019-05-11T02:09:06.830Z,9.52
2019-05-11T02:10:03.766Z,9.52
2019-05-11T02:11:14.945Z,9.53
2019-05-11T02:11:57.817Z,9.52
2019-05-11T02:12:54.759Z,9.52
2019-05-11T02:13:51.822Z,9.52
2019-05-11T02:14:48.844Z,9.52
2019-05-11T02:15:45.765Z,9.52
2019-05-11T02:16:42.803Z,9.52
2019-05-11T02:17:39.843Z,9.52
2019-05-11T02:18:36.891Z,9.52
2019-05-11T02:19:33.820Z,9.51
2019-05-11T02:20:30.868Z,9.50
2019-05-11T02:21:27.889Z,9.51
2019-05-11T02:22:24.924Z,9.50
2019-05-11T02:23:21.937Z,9.51
2019-05-11T02:24:18.902Z,9.51
2019-05-11T02:25:15.946Z,9.50
2019-05-11T02:26:12.971Z,9.51
2019-05-11T02:27:09.907Z,9.51
2019-05-11T02:28:06.945Z,9.51
2019-05-11T02:29:03.982Z,9.52
2019-05-11T02:30:00.937Z,9.51
2019-05-11T02:30:57.957Z,9.50
2019-05-11T02:31:54.992Z,9.47
2019-05-11T02:32:51.935Z,9.50
2019-05-11T02:33:48.981Z,9.48
2019-05-11T02:34:46.010Z,9.47
2019-05-11T02:35:43.072Z,9.48
2019-05-11T02:36:39.983Z,9.47
2019-05-11T02:37:37.021Z,9.47
2019-05-11T02:38:34.052Z,9.47
2019-05-11T02:39:31.183Z,9.47
2019-05-11T02:40:28.049Z,9.47
2019-05-11T02:41:35.755Z,9.47
2019-05-11T02:42:22.099Z,9.47
2019-05-11T02:43:19.139Z,9.46
2019-05-11T02:44:16.164Z,9.47
2019-05-11T02:45:13.119Z,9.46
2019-05-11T02:46:10.179Z,9.47
2019-05-11T02:47:07.089Z,9.46
2019-05-11T02:48:04.118Z,9.47
2019-05-11T02:49:01.182Z,9.43
2019-05-11T02:49:58.209Z,9.44
2019-05-11T02:50:55.149Z,9.44
2019-05-11T02:51:52.178Z,9.43
2019-05-11T02:52:49.209Z,9.44
2019-05-11T02:53:46.245Z,9.43
2019-05-11T02:54:43.177Z,9.43
2019-05-11T02:55:40.237Z,9.44
2019-05-11T02:56:37.266Z,9.43
2019-05-11T02:57:34.195Z,9.43
2019-05-11T02:58:31.227Z,9.43
2019-05-11T02:59:29.976Z,9.43
2019-05-11T03:00:25.347Z,9.42
2019-05-11T03:01:22.249Z,9.43
2019-05-11T03:02:19.273Z,9.42
2019-05-11T03:03:16.421Z,9.43
2019-05-11T03:04:13.362Z,9.43
2019-05-11T03:05:10.301Z,9.42
2019-05-11T03:06:07.353Z,9.42
2019-05-11T03:07:04.395Z,9.43
2019-05-11T03:08:01.394Z,9.44
2019-05-11T03:08:58.367Z,9.43
2019-05-11T03:09:55.381Z,9.43
2019-05-11T03:10:52.425Z,9.44
2019-05-11T03:11:55.536Z,9.46
2019-05-11T03:12:46.491Z,9.47
2019-05-11T03:13:43.413Z,9.47
2019-05-11T03:14:40.451Z,9.47
2019-05-11T03:15:37.478Z,9.47
2019-05-11T03:16:34.436Z,9.46
2019-05-11T03:17:31.461Z,9.47
2019-05-11T03:18:28.504Z,9.46
2019-05-11T03:19:25.440Z,9.46
2019-05-11T03:20:22.485Z,9.47
2019-05-11T03:21:19.527Z,9.47
2019-05-11T03:22:16.453Z,9.47
2019-05-11T03:23:13.622Z,9.47
2019-05-11T03:24:10.526Z,9.47
2019-05-11T03:25:07.557Z,9.47
2019-05-11T03:26:04.509Z,9.47
2019-05-11T03:27:01.567Z,9.46
2019-05-11T03:27:58.568Z,9.46
2019-05-11T03:28:55.604Z,9.46
2019-05-11T03:29:52.554Z,9.47
2019-05-11T03:30:49.623Z,9.46
2019-05-11T03:31:46.628Z,9.47
2019-05-11T03:32:43.651Z,9.47
2019-05-11T03:33:40.822Z,9.47
2019-05-11T03:34:37.637Z,9.47
2019-05-11T03:35:34.676Z,9.48
2019-05-11T03:36:31.609Z,9.51
2019-05-11T03:37:28.682Z,9.51
2019-05-11T03:38:25.714Z,9.51
2019-05-11T03:39:22.710Z,9.52
2019-05-11T03:40:19.658Z,9.52
2019-05-11T03:41:16.681Z,9.52
2019-05-11T03:42:15.280Z,9.53
2019-05-11T03:43:10.767Z,9.55
2019-05-11T03:44:07.692Z,9.53
2019-05-11T03:45:04.733Z,9.55
2019-05-11T03:46:01.794Z,9.55
2019-05-11T03:46:58.720Z,9.53
2019-05-11T03:47:55.792Z,9.55
2019-05-11T03:48:52.778Z,9.53
2019-05-11T03:49:49.855Z,9.56
2019-05-11T03:50:46.826Z,9.56
2019-05-11T03:51:43.801Z,9.56
2019-05-11T03:52:40.828Z,9.56
2019-05-11T03:53:37.874Z,9.56
2019-05-11T03:54:34.841Z,9.57
2019-05-11T03:55:31.834Z,9.59
2019-05-11T03:56:28.885Z,9.59
2019-05-11T03:57:25.822Z,9.60
2019-05-11T03:58:25.777Z,9.61
2019-05-11T03:59:19.895Z,9.60
2019-05-11T04:00:16.924Z,9.61
2019-05-11T04:01:13.886Z,9.63
2019-05-11T04:02:10.906Z,9.64
2019-05-11T04:03:07.928Z,9.63
2019-05-11T04:04:04.967Z,9.64
2019-05-11T04:05:01.904Z,9.63
2019-05-11T04:05:58.954Z,9.63
2019-05-11T04:06:55.977Z,9.64
2019-05-11T04:07:52.926Z,9.63
2019-05-11T04:08:49.954Z,9.61
2019-05-11T04:09:46.987Z,9.61
2019-05-11T04:10:44.055Z,9.61
2019-05-11T04:11:40.972Z,9.61
2019-05-11T04:12:38.086Z,9.63
2019-05-11T04:13:35.051Z,9.64
2019-05-11T04:14:32.071Z,9.65
2019-05-11T04:15:28.997Z,9.67
2019-05-11T04:16:26.045Z,9.68
2019-05-11T04:17:23.173Z,9.69
2019-05-11T04:18:20.117Z,9.69
2019-05-11T04:19:17.054Z,9.72
2019-05-11T04:20:14.089Z,9.72
2019-05-11T04:21:11.151Z,9.72
2019-05-11T04:22:08.071Z,9.72
2019-05-11T04:23:05.124Z,9.73
2019-05-11T04:24:02.139Z,9.72
2019-05-11T04:24:59.178Z,9.73
2019-05-11T04:25:56.111Z,9.73
2019-05-11T04:26:53.191Z,9.72
2019-05-11T04:27:50.210Z,9.73
2019-05-11T04:28:47.231Z,9.72
2019-05-11T04:29:44.161Z,9.72
2019-05-11T04:30:41.195Z,9.72
2019-05-11T04:31:38.325Z,9.73
2019-05-11T04:32:35.174Z,9.72
2019-05-11T04:33:33.209Z,9.72
2019-05-11T04:34:29.244Z,9.73
2019-05-11T04:35:26.285Z,9.72
2019-05-11T04:36:23.232Z,9.72
2019-05-11T04:37:20.258Z,9.73
2019-05-11T04:38:17.305Z,9.73
2019-05-11T04:39:14.328Z,9.73
2019-05-11T04:40:11.265Z,9.73
2019-05-11T04:41:08.344Z,9.72
2019-05-11T04:42:05.353Z,9.72
2019-05-11T04:43:02.376Z,9.72
2019-05-11T04:43:59.326Z,9.73
2019-05-11T04:44:56.361Z,9.73
2019-05-11T04:45:53.386Z,9.72
2019-05-11T04:46:50.327Z,9.72
2019-05-11T04:47:47.373Z,9.71
2019-05-11T04:48:44.487Z,9.71
2019-05-11T04:49:41.434Z,9.69
2019-05-11T04:50:38.370Z,9.71
2019-05-11T04:51:35.406Z,9.71
2019-05-11T04:52:32.459Z,9.71
2019-05-11T04:53:29.516Z,9.71
2019-05-11T04:54:26.417Z,9.69
2019-05-11T04:55:23.454Z,9.69
2019-05-11T04:56:20.531Z,9.72
2019-05-11T04:57:17.440Z,9.72
2019-05-11T04:58:14.503Z,9.68
2019-05-11T04:59:11.516Z,9.71
2019-05-11T05:00:08.539Z,9.68
2019-05-11T05:01:05.478Z,9.68
2019-05-11T05:02:02.553Z,9.69
2019-05-11T05:02:59.549Z,9.69
2019-05-11T05:04:13.006Z,9.69
2019-05-11T05:04:53.505Z,9.69
2019-05-11T05:05:50.562Z,9.71
2019-05-11T05:06:59.017Z,9.71
2019-05-11T05:07:49.278Z,9.69
2019-05-11T05:08:41.660Z,9.69
2019-05-11T05:09:42.522Z,9.69
2019-05-11T05:10:35.644Z,9.71
2019-05-11T05:11:36.659Z,9.69
2019-05-11T05:12:29.707Z,9.69
2019-05-11T05:13:29.613Z,9.69
2019-05-11T05:14:23.708Z,9.68
2019-05-11T05:15:20.626Z,9.71
2019-05-11T05:16:17.663Z,9.72
2019-05-11T05:17:14.701Z,9.69
2019-05-11T05:18:11.752Z,9.72
2019-05-11T05:19:08.702Z,9.72
2019-05-11T05:20:05.713Z,9.73
2019-05-11T05:21:02.748Z,9.73
2019-05-11T05:21:59.691Z,9.72
2019-05-11T05:22:56.736Z,9.73
2019-05-11T05:23:53.768Z,9.73
2019-05-11T05:24:50.823Z,9.72
2019-05-11T05:25:47.734Z,9.73
2019-05-11T05:26:44.808Z,9.76
2019-05-11T05:27:41.810Z,9.72
2019-05-11T05:28:38.933Z,9.76
2019-05-11T05:29:35.794Z,9.77
2019-05-11T05:30:32.819Z,9.76
2019-05-11T05:31:29.857Z,9.79
2019-05-11T05:32:26.797Z,9.79
2019-05-11T05:33:23.835Z,9.80
2019-05-11T05:34:20.915Z,9.80
2019-05-11T05:35:17.950Z,9.80
2019-05-11T05:36:14.925Z,9.80
2019-05-11T05:37:11.874Z,9.82
2019-05-11T05:38:08.927Z,9.82
2019-05-11T05:39:08.794Z,9.84
2019-05-11T05:40:02.913Z,9.84
2019-05-11T05:40:59.960Z,9.81
2019-05-11T05:41:57.718Z,9.81
2019-05-11T05:42:53.926Z,9.84
2019-05-11T05:43:50.932Z,9.82
2019-05-11T05:44:48.064Z,9.82
2019-05-11T05:45:45.047Z,9.82
2019-05-11T05:46:41.966Z,9.85
2019-05-11T05:47:39.029Z,9.84
2019-05-11T05:48:36.031Z,9.82
2019-05-11T05:49:33.054Z,9.81
2019-05-11T05:50:30.015Z,9.80
2019-05-11T05:51:27.027Z,9.79
2019-05-11T05:52:24.065Z,9.79
2019-05-11T05:53:21.102Z,9.77
2019-05-11T05:54:18.043Z,9.76
2019-05-11T05:55:15.089Z,9.77
2019-05-11T05:56:12.114Z,9.76
2019-05-11T05:57:09.052Z,9.77
2019-05-11T05:58:06.099Z,9.77
2019-05-11T05:59:03.122Z,9.77
2019-05-11T06:00:00.482Z,9.79
2019-05-11T06:00:57.134Z,9.80
2019-05-11T06:01:54.132Z,9.81
2019-05-11T06:02:51.169Z,9.81
2019-05-11T06:03:48.220Z,9.81
2019-05-11T06:04:45.184Z,9.81
2019-05-11T06:05:42.193Z,9.80
2019-05-11T06:06:39.217Z,9.79
2019-05-11T06:07:36.161Z,9.76
2019-05-11T06:08:33.203Z,9.77
2019-05-11T06:09:30.232Z,9.76
2019-05-11T06:10:27.278Z,9.76
2019-05-11T06:11:24.203Z,9.77
2019-05-11T06:12:21.241Z,9.76
2019-05-11T06:13:18.282Z,9.77
2019-05-11T06:14:15.328Z,9.76
2019-05-11T06:15:12.251Z,9.73
2019-05-11T06:16:09.305Z,9.72
2019-05-11T06:17:06.323Z,9.72
2019-05-11T06:18:03.361Z,9.72
2019-05-11T06:19:00.308Z,9.75
2019-05-11T06:19:57.347Z,9.73
2019-05-11T06:20:54.467Z,9.76
2019-05-11T06:21:51.346Z,9.77
2019-05-11T06:22:48.345Z,9.79
2019-05-11T06:23:45.381Z,9.79
2019-05-11T06:24:42.417Z,9.79
2019-05-11T06:25:39.384Z,9.82
2019-05-11T06:26:36.399Z,9.82
2019-05-11T06:27:33.431Z,9.84
2019-05-11T06:28:30.475Z,9.82
2019-05-11T06:29:27.431Z,9.84
2019-05-11T06:30:24.441Z,9.85
2019-05-11T06:31:21.607Z,9.86
2019-05-11T06:32:18.520Z,9.86
2019-05-11T06:33:15.485Z,9.85
2019-05-11T06:34:12.536Z,9.84
2019-05-11T06:35:09.524Z,9.84
2019-05-11T06:36:06.551Z,9.85
2019-05-11T06:37:03.503Z,9.85
2019-05-11T06:38:00.580Z,9.85
2019-05-11T06:38:57.582Z,9.86
2019-05-11T06:39:54.521Z,9.89
2019-05-11T06:40:51.541Z,9.89
2019-05-11T06:41:48.593Z,9.89
2019-05-11T06:42:45.524Z,9.92
2019-05-11T06:43:42.657Z,9.90
2019-05-11T06:44:39.631Z,9.90
2019-05-11T06:45:36.631Z,9.92
2019-05-11T06:46:35.140Z,9.92
2019-05-11T06:47:30.625Z,9.89
2019-05-11T06:48:27.640Z,9.88
2019-05-11T06:49:24.716Z,9.88
2019-05-11T06:50:21.623Z,9.88
2019-05-11T06:51:18.647Z,9.89
2019-05-11T06:52:15.700Z,9.89
2019-05-11T06:53:12.727Z,9.89
2019-05-11T06:54:09.657Z,9.90
2019-05-11T06:55:06.643Z,9.89
2019-05-11T06:56:03.732Z,9.89
2019-05-11T06:57:00.704Z,9.89
2019-05-11T06:57:57.710Z,9.93
2019-05-11T06:58:54.744Z,9.92
2019-05-11T06:59:51.780Z,9.92
2019-05-11T07:00:48.776Z,9.92
2019-05-11T07:01:45.794Z,9.89
2019-05-11T07:02:42.899Z,9.92
2019-05-11T07:03:39.830Z,9.93
2019-05-11T07:04:36.866Z,9.94
2019-05-11T07:05:33.815Z,9.96
2019-05-11T07:06:30.916Z,9.97
2019-05-11T07:07:27.787Z,9.97
2019-05-11T07:08:24.810Z,9.96
2019-05-11T07:09:21.848Z,9.97
2019-05-11T07:10:18.884Z,9.97
2019-05-11T07:11:15.844Z,9.96
2019-05-11T07:12:13.007Z,9.97
2019-05-11T07:13:09.896Z,9.98
2019-05-11T07:14:19.767Z,9.98
2019-05-11T07:15:03.890Z,10.01
2019-05-11T07:16:00.911Z,10.03
2019-05-11T07:16:57.979Z,10.05
2019-05-11T07:17:54.882Z,10.02
2019-05-11T07:18:51.917Z,10.01
2019-05-11T07:19:48.956Z,10.02
2019-05-11T07:20:50.382Z,10.03
2019-05-11T07:21:42.935Z,10.02
2019-05-11T07:22:39.984Z,9.97
2019-05-11T07:23:37.001Z,9.96
2019-05-11T07:24:34.141Z,9.94
2019-05-11T07:25:31.076Z,9.93
2019-05-11T07:26:28.011Z,9.93
2019-05-11T07:27:25.061Z,9.92
2019-05-11T07:28:21.989Z,9.89
2019-05-11T07:29:19.019Z,9.89
2019-05-11T07:30:16.065Z,9.90
2019-05-11T07:31:13.086Z,9.89
2019-05-11T07:32:21.983Z,9.90
2019-05-11T07:33:08.076Z,9.90
2019-05-11T07:34:04.104Z,9.89
2019-05-11T07:35:01.250Z,9.89
2019-05-11T07:35:58.389Z,9.90
2019-05-11T07:36:57.552Z,9.89
2019-05-11T07:37:52.151Z,9.89
2019-05-11T07:38:49.093Z,9.88
2019-05-11T07:39:48.591Z,9.89
2019-05-11T07:40:43.115Z,9.89
2019-05-11T07:41:40.291Z,9.90
2019-05-11T07:42:38.006Z,9.89
2019-05-11T07:43:34.172Z,9.90
2019-05-11T07:44:37.943Z,9.90
2019-05-11T07:45:28.457Z,9.92
2019-05-11T07:46:25.182Z,9.89
2019-05-11T07:47:22.234Z,9.92
2019-05-11T07:48:19.257Z,9.93
2019-05-11T07:49:17.922Z,9.93
2019-05-11T07:50:13.229Z,9.94
2019-05-11T07:51:10.286Z,9.96
2019-05-11T07:52:07.854Z,9.97
2019-05-11T07:53:04.256Z,9.97
2019-05-11T07:54:01.280Z,9.98
2019-05-11T07:54:58.316Z,9.97
2019-05-11T07:55:57.560Z,10.00
2019-05-11T07:56:52.303Z,10.03
2019-05-11T07:57:49.339Z,10.06
2019-05-11T07:58:48.111Z,10.07
2019-05-11T07:59:43.402Z,10.09
2019-05-11T08:00:40.346Z,10.10
2019-05-11T08:01:38.670Z,10.10
2019-05-11T08:02:34.344Z,10.11
2019-05-11T08:03:31.353Z,10.14
2019-05-11T08:04:28.916Z,10.17
2019-05-11T08:05:25.424Z,10.15
2019-05-11T08:06:22.471Z,10.11
2019-05-11T08:07:19.392Z,10.11
2019-05-11T08:08:18.045Z,10.09
2019-05-11T08:09:13.467Z,10.06
2019-05-11T08:10:10.515Z,10.06
2019-05-11T08:11:08.154Z,10.07
2019-05-11T08:12:04.491Z,10.06
2019-05-11T08:13:01.530Z,10.05
2019-05-11T08:13:58.647Z,10.05
2019-05-11T08:15:04.928Z,10.06
2019-05-11T08:15:53.051Z,10.06
2019-05-11T08:16:49.564Z,10.07
2019-05-11T08:17:48.781Z,10.06
2019-05-11T08:18:43.535Z,10.06
2019-05-11T08:19:40.578Z,10.06
2019-05-11T08:20:38.520Z,10.10
2019-05-11T08:21:34.560Z,10.10
2019-05-11T08:22:31.585Z,10.13
2019-05-11T08:23:28.762Z,10.14
2019-05-11T08:24:25.670Z,10.19
2019-05-11T08:25:22.594Z,10.19
2019-05-11T08:26:19.631Z,10.17
2019-05-11T08:27:18.551Z,10.17
2019-05-11T08:28:13.619Z,10.19
2019-05-11T08:29:10.641Z,10.22
2019-05-11T08:30:08.528Z,10.28
2019-05-11T08:31:04.717Z,10.32
2019-05-11T08:32:01.665Z,10.35
2019-05-11T08:32:58.795Z,10.35
2019-05-11T08:33:58.104Z,10.35
2019-05-11T08:34:52.763Z,10.35
2019-05-11T08:35:49.715Z,10.39
2019-05-11T08:36:48.052Z,10.39
2019-05-11T08:37:43.797Z,10.38
2019-05-11T08:38:40.834Z,10.40
2019-05-11T08:39:37.992Z,10.43
2019-05-11T08:40:34.783Z,10.44
2019-05-11T08:41:31.819Z,10.43
2019-05-11T08:42:29.069Z,10.43
2019-05-11T08:43:28.325Z,10.44
2019-05-11T08:44:22.836Z,10.44
2019-05-11T08:45:24.093Z,10.43
2019-05-11T08:46:18.613Z,10.42
2019-05-11T08:47:13.854Z,10.36
2019-05-11T08:48:10.877Z,10.32
2019-05-11T08:49:08.622Z,10.32
2019-05-11T08:50:04.852Z,10.28
2019-05-11T08:51:01.889Z,10.31
2019-05-11T08:51:58.926Z,10.27
2019-05-11T08:52:57.922Z,10.28
2019-05-11T08:53:52.911Z,10.31
2019-05-11T08:54:49.975Z,10.36
2019-05-11T08:55:48.584Z,10.40
2019-05-11T08:56:43.930Z,10.42
2019-05-11T08:57:40.945Z,10.43
2019-05-11T08:58:38.193Z,10.43
2019-05-11T08:59:35.021Z,10.42
2019-05-11T09:00:31.956Z,10.43
2019-05-11T09:01:28.993Z,10.43
2019-05-11T09:02:27.767Z,10.43
2019-05-11T09:03:23.068Z,10.43
2019-05-11T09:04:20.141Z,10.42
2019-05-11T09:05:18.773Z,10.43
2019-05-11T09:06:14.078Z,10.42
2019-05-11T09:07:11.011Z,10.38
2019-05-11T09:08:08.313Z,10.40
2019-05-11T09:09:05.115Z,10.38
2019-05-11T09:10:02.138Z,10.39
2019-05-11T09:10:59.061Z,10.39
2019-05-11T09:11:58.615Z,10.42
2019-05-11T09:12:53.148Z,10.44
2019-05-11T09:13:50.172Z,10.43
2019-05-11T09:14:47.887Z,10.43
2019-05-11T09:15:44.145Z,10.43
2019-05-11T09:16:41.185Z,10.43
2019-05-11T09:17:38.358Z,10.40
2019-05-11T09:18:35.172Z,10.39
2019-05-11T09:19:32.207Z,10.42
2019-05-11T09:20:29.231Z,10.43
2019-05-11T09:21:28.142Z,10.42
2019-05-11T09:22:23.245Z,10.40
2019-05-11T09:23:33.759Z,10.39
2019-05-11T09:24:18.960Z,10.39
2019-05-11T09:25:14.223Z,10.36
2019-05-11T09:26:11.251Z,10.34
2019-05-11T09:27:08.309Z,10.31
2019-05-11T09:28:05.314Z,10.31
2019-05-11T09:29:02.260Z,10.27
2019-05-11T09:29:59.312Z,10.26
2019-05-11T09:30:57.809Z,10.26
2019-05-11T09:31:53.271Z,10.26
2019-05-11T09:32:50.323Z,10.26
2019-05-11T09:33:47.953Z,10.26
2019-05-11T09:34:44.303Z,10.27
2019-05-11T09:35:49.878Z,10.27
2019-05-11T09:36:39.046Z,10.27
2019-05-11T09:37:37.888Z,10.30
2019-05-11T09:38:32.364Z,10.31
2019-05-11T09:39:29.381Z,10.31
2019-05-11T09:40:28.402Z,10.31
2019-05-11T09:41:23.440Z,10.31
2019-05-11T09:42:20.379Z,10.34
2019-05-11T09:43:17.943Z,10.34
2019-05-11T09:44:14.650Z,10.35
2019-05-11T09:45:11.412Z,10.35
2019-05-11T09:46:08.553Z,10.35
2019-05-11T09:47:05.439Z,10.35
2019-05-11T09:48:02.760Z,10.35
2019-05-11T09:48:59.440Z,10.35
2019-05-11T09:49:58.228Z,10.36
2019-05-11T09:50:53.508Z,10.38
2019-05-11T09:51:50.587Z,10.42
2019-05-11T09:52:48.928Z,10.43
2019-05-11T09:53:44.531Z,10.44
2019-05-11T09:54:41.572Z,10.44
2019-05-11T09:55:38.999Z,10.43
2019-05-11T09:56:37.976Z,10.43
2019-05-11T09:57:32.658Z,10.43
2019-05-11T09:58:29.645Z,10.44
2019-05-11T09:59:28.180Z,10.44
2019-05-11T10:00:23.590Z,10.43
2019-05-11T10:01:20.612Z,10.42
2019-05-11T10:02:20.864Z,10.43
2019-05-11T10:03:14.598Z,10.42
2019-05-11T10:04:11.638Z,10.43
2019-05-11T10:05:08.676Z,10.47
2019-05-11T10:06:08.169Z,10.52
2019-05-11T10:07:02.633Z,10.56
2019-05-11T10:07:59.672Z,10.60
2019-05-11T10:08:57.908Z,10.65
2019-05-11T10:09:53.658Z,10.71
2019-05-11T10:10:50.685Z,10.68
2019-05-11T10:11:48.106Z,10.64
2019-05-11T10:12:44.846Z,10.61
2019-05-11T10:13:41.698Z,10.57
2019-05-11T10:14:38.727Z,10.60
2019-05-11T10:15:35.786Z,10.60
2019-05-11T10:16:32.803Z,10.61
2019-05-11T10:17:29.743Z,10.64
2019-05-11T10:18:28.160Z,10.67
2019-05-11T10:19:23.965Z,10.68
2019-05-11T10:20:20.766Z,10.69
2019-05-11T10:21:18.796Z,10.73
2019-05-11T10:22:14.825Z,10.76
2019-05-11T10:23:11.865Z,10.77
2019-05-11T10:24:08.804Z,10.77
2019-05-11T10:25:05.923Z,10.77
2019-05-11T10:26:02.873Z,10.77
2019-05-11T10:26:59.909Z,10.77
2019-05-11T10:27:58.036Z,10.76
2019-05-11T10:28:54.415Z,10.77
2019-05-11T10:29:50.940Z,10.76
2019-05-11T10:30:48.710Z,10.81
2019-05-11T10:31:44.930Z,10.81
2019-05-11T10:32:41.928Z,10.80
2019-05-11T10:33:38.981Z,10.81
2019-05-11T10:34:37.990Z,10.81
2019-05-11T10:35:32.954Z,10.80
2019-05-11T10:36:29.918Z,10.80
2019-05-11T10:37:28.274Z,10.81
2019-05-11T10:38:24.042Z,10.81
2019-05-11T10:39:20.985Z,10.82
2019-05-11T10:40:19.013Z,10.79
2019-05-11T10:41:15.064Z,10.77
2019-05-11T10:42:11.996Z,10.77
2019-05-11T10:43:09.169Z,10.77
2019-05-11T10:44:08.097Z,10.79
2019-05-11T10:45:03.032Z,10.80
2019-05-11T10:46:00.046Z,10.77
2019-05-11T10:46:58.890Z,10.80
2019-05-11T10:47:57.726Z,10.80
2019-05-11T10:48:51.057Z,10.80
2019-05-11T10:49:48.596Z,10.77
2019-05-11T10:50:45.150Z,10.75
2019-05-11T10:51:42.170Z,10.79
2019-05-11T10:52:39.102Z,10.77
2019-05-11T10:53:38.268Z,10.76
2019-05-11T10:54:33.176Z,10.73
2019-05-11T10:55:30.117Z,10.77
2019-05-11T10:56:28.439Z,10.81
2019-05-11T10:57:24.185Z,10.85
2019-05-11T10:58:21.227Z,10.92
2019-05-11T10:59:18.733Z,10.94
2019-05-11T11:00:17.528Z,11.00
2019-05-11T11:01:12.235Z,11.02
2019-05-11T11:02:09.271Z,11.02
2019-05-11T11:03:08.292Z,11.02
2019-05-11T11:04:03.267Z,11.02
2019-05-11T11:05:00.282Z,11.05
2019-05-11T11:05:58.049Z,11.09
2019-05-11T11:06:54.412Z,11.10
2019-05-11T11:07:51.294Z,11.18
2019-05-11T11:08:48.846Z,11.22
2019-05-11T11:09:45.278Z,11.22
2019-05-11T11:10:42.327Z,11.19
2019-05-11T11:11:39.339Z,11.10
2019-05-11T11:12:38.525Z,10.98
2019-05-11T11:13:33.336Z,10.92
2019-05-11T11:14:30.349Z,10.88
2019-05-11T11:15:28.806Z,10.85
2019-05-11T11:16:35.692Z,10.90
2019-05-11T11:17:21.359Z,10.96
2019-05-11T11:18:18.993Z,11.02
2019-05-11T11:19:15.450Z,11.10
2019-05-11T11:20:12.372Z,11.15
2019-05-11T11:21:09.432Z,11.19
2019-05-11T11:22:29.333Z,11.22
2019-05-11T11:23:03.484Z,11.27
2019-05-11T11:24:00.442Z,11.30
2019-05-11T11:24:58.867Z,11.27
2019-05-11T11:25:54.546Z,11.25
2019-05-11T11:26:51.468Z,11.27
2019-05-11T11:27:48.879Z,11.31
2019-05-11T11:28:47.572Z,11.31
2019-05-11T11:29:42.532Z,11.30
2019-05-11T11:30:39.576Z,11.27
2019-05-11T11:31:37.998Z,11.30
2019-05-11T11:32:33.603Z,11.31
2019-05-11T11:33:30.588Z,11.27
2019-05-11T11:34:28.033Z,11.25
2019-05-11T11:35:24.574Z,11.18
2019-05-11T11:36:21.611Z,11.14
2019-05-11T11:37:18.542Z,11.13
2019-05-11T11:38:17.850Z,11.14
2019-05-11T11:39:12.616Z,11.14
2019-05-11T11:40:09.668Z,11.14
2019-05-11T11:41:07.644Z,11.14
2019-05-11T11:42:03.628Z,11.18
2019-05-11T11:43:00.695Z,11.35
2019-05-11T11:43:58.619Z,11.47
2019-05-11T11:44:54.722Z,11.53
2019-05-11T11:45:51.766Z,11.61
2019-05-11T11:46:54.923Z,11.59
2019-05-11T11:47:45.741Z,11.44
2019-05-11T11:48:42.714Z,11.34
2019-05-11T11:49:39.805Z,11.28
2019-05-11T11:50:37.798Z,11.27
2019-05-11T11:51:33.707Z,11.27
2019-05-11T11:52:30.834Z,11.27
2019-05-11T11:53:28.067Z,11.22
2019-05-11T11:54:24.811Z,11.17
2019-05-11T11:55:21.860Z,11.18
2019-05-11T11:56:19.313Z,11.21
2019-05-11T11:57:18.040Z,11.23
2019-05-11T11:58:12.878Z,11.25
2019-05-11T11:58:31.804Z,11.25
2019-05-11T11:59:28.971Z,11.28
2019-05-11T12:00:25.958Z,11.39
2019-05-11T12:01:22.994Z,11.48
2019-05-11T12:02:19.941Z,11.60
2019-05-11T12:03:18.520Z,11.61
2019-05-11T12:04:13.955Z,11.56
2019-05-11T12:05:10.868Z,11.52
2019-05-11T12:06:08.732Z,11.50
2019-05-11T12:07:04.982Z,11.52
2019-05-11T12:08:01.887Z,11.51
2019-05-11T12:08:58.892Z,11.53
2019-05-11T12:09:58.571Z,11.52
2019-05-11T12:10:53.143Z,11.56
2019-05-11T12:11:50.101Z,11.57
2019-05-11T12:12:47.566Z,11.56
2019-05-11T12:13:44.025Z,11.55
2019-05-11T12:14:41.060Z,11.52
2019-05-11T12:15:38.721Z,11.56
2019-05-11T12:16:35.091Z,11.56
2019-05-11T12:17:32.070Z,11.52
2019-05-11T12:18:29.107Z,11.42
2019-05-11T12:19:27.852Z,11.39
2019-05-11T12:20:23.128Z,11.31
2019-05-11T12:21:20.189Z,11.27
2019-05-11T12:22:18.750Z,11.25
2019-05-11T12:23:14.087Z,11.25
2019-05-11T12:24:11.131Z,11.26
2019-05-11T12:25:08.183Z,11.27
2019-05-11T12:26:05.200Z,11.27
2019-05-11T12:27:02.186Z,11.25
2019-05-11T12:27:59.180Z,11.22